createdAt,value
2019-04-26T00:03:14.564Z,11.995544
2019-04-26T00:08:37.399Z,12.005615
2019-04-26T00:14:00.734Z,11.884766
2019-04-26T00:19:23.485Z,11.874695
2019-04-26T00:24:46.184Z,11.93512
2019-04-26T00:30:10.516Z,11.743774
2019-04-26T00:35:32.653Z,11.512146
2019-04-26T00:40:56.366Z,11.381226
2019-04-26T00:46:19.165Z,11.159668
2019-04-26T00:51:42.175Z,10.80719
2019-04-26T00:57:05.009Z,10.494995
2019-04-26T01:02:28.810Z,10.535278
2019-04-26T01:07:51.587Z,10.354004
2019-04-26T01:13:15.308Z,10.253296
2019-04-26T01:18:38.105Z,10.354004
2019-04-26T01:24:00.836Z,10.132446
2019-04-26T01:29:23.795Z,10.072021
2019-04-26T01:34:46.269Z,10.072021
2019-04-26T01:40:08.994Z,9.850464
2019-04-26T01:45:32.079Z,9.598694
2019-04-26T01:50:54.548Z,9.29657
2019-04-26T01:56:17.435Z,9.669189
2019-04-26T02:01:41.123Z,9.749756
2019-04-26T02:07:03.937Z,9.67926
2019-04-26T02:12:26.788Z,9.346924
2019-04-26T02:17:49.496Z,9.316711
2019-04-26T02:23:12.361Z,9.961243
2019-04-26T02:28:35.049Z,10.1828
2019-04-26T02:33:57.781Z,10.011597
2019-04-26T02:39:20.581Z,9.810181
2019-04-26T02:44:44.405Z,9.588623
2019-04-26T02:50:07.103Z,9.578552
2019-04-26T02:55:31.313Z,9.779968
2019-04-26T03:00:53.619Z,9.669189
2019-04-26T03:06:20.641Z,9.860535
2019-04-26T03:11:44.323Z,9.951172
2019-04-26T03:17:07.059Z,10.061951
2019-04-26T03:22:29.825Z,10.142517
2019-04-26T03:27:53.620Z,10.142517
2019-04-26T03:33:16.521Z,10.343933
2019-04-26T03:38:40.031Z,10.323792
2019-04-26T03:44:01.823Z,10.263367
2019-04-26T03:49:24.586Z,10.243225
2019-04-26T03:54:48.361Z,10.1828
2019-04-26T04:00:11.242Z,10.394287
2019-04-26T04:05:35.938Z,10.43457
2019-04-26T04:10:58.506Z,10.474854
2019-04-26T04:16:21.322Z,10.67627
2019-04-26T04:21:45.016Z,10.68634
2019-04-26T04:27:06.917Z,10.776978
2019-04-26T04:32:29.710Z,10.857544
2019-04-26T04:38:07.511Z,10.988464
2019-04-26T04:43:17.241Z,11.028748
2019-04-26T04:48:41.144Z,11.05896
2019-04-26T04:54:04.312Z,11.028748
2019-04-26T04:59:27.015Z,11.028748
2019-04-26T05:04:51.077Z,11.079102
2019-04-26T05:10:13.474Z,11.109314
2019-04-26T05:15:36.257Z,11.119385
2019-04-26T05:20:59.810Z,11.260376
2019-04-26T05:26:22.589Z,11.300659
2019-04-26T05:31:46.144Z,11.381226
2019-04-26T05:37:08.151Z,11.421509
2019-04-26T05:42:30.881Z,11.481934
2019-04-26T05:48:04.974Z,11.5625
2019-04-26T05:53:17.343Z,11.69342
2019-04-26T05:58:40.061Z,11.743774
2019-04-26T06:04:02.866Z,11.794128
2019-04-26T06:09:25.796Z,11.784058
2019-04-26T06:14:50.468Z,11.753845
2019-04-26T06:20:22.490Z,11.632996
2019-04-26T06:25:36.755Z,11.572571
2019-04-26T06:30:59.614Z,11.632996
2019-04-26T06:36:23.443Z,11.643066
2019-04-26T06:41:46.166Z,11.794128
2019-04-26T06:47:10.054Z,11.824341
2019-04-26T06:52:32.719Z,11.542358
2019-04-26T06:57:55.484Z,11.663208
2019-04-26T07:03:18.407Z,11.643066
2019-04-26T07:08:41.209Z,11.512146
2019-04-26T07:14:04.945Z,11.461792
2019-04-26T07:19:27.592Z,11.451721
2019-04-26T07:24:51.152Z,11.451721
2019-04-26T07:30:13.930Z,11.451721
2019-04-26T07:35:36.695Z,11.592712
2019-04-26T07:40:59.442Z,11.461792
2019-04-26T07:46:22.157Z,11.542358
2019-04-26T07:51:44.805Z,11.44165
2019-04-26T07:57:08.648Z,11.44165
2019-04-26T08:02:30.440Z,11.381226
2019-04-26T08:07:53.103Z,11.381226
2019-04-26T08:13:15.829Z,11.421509
2019-04-26T08:18:38.478Z,11.330872
2019-04-26T08:24:02.145Z,11.280518
2019-04-26T08:29:24.812Z,11.421509
2019-04-26T08:34:48.604Z,11.532288
2019-04-26T08:40:14.416Z,11.330872
2019-04-26T08:45:34.966Z,11.270447
2019-04-26T08:50:59.490Z,11.199951
2019-04-26T08:56:23.166Z,11.230164
2019-04-26T09:01:46.580Z,11.31073
2019-04-26T09:07:08.484Z,11.330872
2019-04-26T09:12:31.162Z,11.542358
2019-04-26T09:17:53.875Z,11.904907
2019-04-26T09:23:17.517Z,11.784058
2019-04-26T09:28:40.295Z,12.247314
2019-04-26T09:34:06.273Z,12.760925
2019-04-26T09:39:27.809Z,12.811279
2019-04-26T09:44:51.435Z,12.710571
2019-04-26T09:50:15.317Z,12.297668
2019-04-26T09:55:36.823Z,12.630005
2019-04-26T10:00:59.494Z,14.019775
2019-04-26T10:06:22.154Z,14.362183
2019-04-26T10:11:46.434Z,13.465881
2019-04-26T10:17:11.441Z,13.496094
2019-04-26T10:22:32.545Z,13.173828
2019-04-26T10:27:55.318Z,13.717651
2019-04-26T10:33:17.970Z,13.254395
2019-04-26T10:38:40.627Z,13.757935
2019-04-26T10:44:03.355Z,14.170837
2019-04-26T10:49:26.043Z,14.714661
2019-04-26T10:54:48.698Z,14.110413
2019-04-26T11:00:14.018Z,13.908997
2019-04-26T11:05:34.017Z,14.362183
2019-04-26T11:10:56.672Z,14.523315
2019-04-26T11:16:19.539Z,13.868713
2019-04-26T11:21:42.148Z,13.425598
2019-04-26T11:27:05.226Z,13.627014
2019-04-26T11:32:27.667Z,13.455811
2019-04-26T11:37:55.070Z,13.405457
2019-04-26T11:43:15.747Z,13.586731
2019-04-26T11:48:36.651Z,13.707581
2019-04-26T11:53:59.395Z,13.536377
2019-04-26T11:59:22.106Z,13.616943
2019-04-26T12:04:49.424Z,13.959351
2019-04-26T12:10:09.706Z,13.838501
2019-04-26T12:15:31.468Z,14.422607
2019-04-26T12:20:57.051Z,15.198059
2019-04-26T12:26:21.481Z,15.248413
2019-04-26T12:31:46.700Z,15.530396
2019-04-26T12:37:12.488Z,15.681458
2019-04-26T12:42:33.064Z,15.409546
2019-04-26T12:47:56.881Z,15.278625
2019-04-26T12:53:20.603Z,14.996643
2019-04-26T12:58:45.569Z,14.573669
2019-04-26T13:04:06.922Z,14.533386
2019-04-26T13:09:29.669Z,14.634094
2019-04-26T13:14:52.303Z,15.399475
2019-04-26T13:20:14.965Z,15.006714
2019-04-26T13:25:40.311Z,14.311829
2019-04-26T13:31:02.321Z,14.422607
2019-04-26T13:36:25.165Z,14.754944
2019-04-26T13:41:46.690Z,15.298767
2019-04-26T13:47:10.367Z,15.228271
2019-04-26T13:52:33.099Z,15.661316
2019-04-26T13:57:56.125Z,16.477051
2019-04-26T14:03:18.515Z,15.96344
2019-04-26T14:08:42.175Z,16.295776
2019-04-26T14:14:05.840Z,15.731812
2019-04-26T14:19:29.109Z,15.328979
2019-04-26T14:24:52.939Z,15.08728
2019-04-26T14:30:14.415Z,14.845581
2019-04-26T14:35:37.127Z,14.825439
2019-04-26T14:41:03.929Z,14.634094
2019-04-26T14:46:25.119Z,14.714661
2019-04-26T14:51:50.759Z,15.026855
2019-04-26T14:57:15.488Z,15.671387
2019-04-26T15:02:34.200Z,15.530396
2019-04-26T15:07:57.991Z,15.218201
2019-04-26T15:13:23.544Z,15.671387
2019-04-26T15:18:46.042Z,15.520325
2019-04-26T15:24:08.708Z,15.046997
2019-04-26T15:29:32.253Z,14.563599
2019-04-26T15:34:54.947Z,14.462891
2019-04-26T15:40:17.120Z,14.493103
2019-04-26T15:45:42.284Z,14.785156
2019-04-26T15:51:03.456Z,14.996643
2019-04-26T15:56:27.107Z,15.08728
2019-04-26T16:01:49.716Z,15.006714
2019-04-26T16:07:14.569Z,14.775085
2019-04-26T16:12:36.086Z,15.046997
2019-04-26T16:17:58.672Z,15.741882
2019-04-26T16:23:22.802Z,16.33606
2019-04-26T16:28:45.961Z,17.866821
2019-04-26T16:34:10.595Z,17.393494
2019-04-26T16:39:36.313Z,18.068237
2019-04-26T16:44:55.193Z,18.501282
2019-04-26T16:50:22.995Z,18.068237
2019-04-26T16:55:48.703Z,18.753052
2019-04-26T17:01:10.011Z,17.272644
2019-04-26T17:06:30.123Z,16.295776
2019-04-26T17:11:53.699Z,15.681458
2019-04-26T17:17:16.348Z,15.681458
2019-04-26T17:22:44.328Z,15.621033
2019-04-26T17:28:03.392Z,15.520325
2019-04-26T17:33:28.129Z,15.480042
2019-04-26T17:38:50.531Z,15.530396
2019-04-26T17:44:13.280Z,15.439758
2019-04-26T17:49:38.074Z,15.157776
2019-04-26T17:55:00.198Z,14.845581
2019-04-26T18:00:26.865Z,14.724731
2019-04-26T18:05:56.927Z,14.563599
2019-04-26T18:11:19.892Z,14.039917
2019-04-26T18:16:39.017Z,13.959351
2019-04-26T18:22:03.689Z,13.506165
2019-04-26T18:27:29.763Z,13.506165
2019-04-26T18:32:49.518Z,13.143616
2019-04-26T18:38:13.381Z,12.770996
2019-04-26T18:43:35.365Z,12.398376
2019-04-26T18:48:58.571Z,12.045898
2019-04-26T18:54:21.259Z,11.904907
2019-04-26T18:59:44.659Z,11.824341
2019-04-26T19:05:06.638Z,11.703491
2019-04-26T19:10:29.951Z,11.542358
2019-04-26T19:15:52.031Z,11.351013
2019-04-26T19:21:14.745Z,11.129456
2019-04-26T19:26:37.382Z,11.048889
2019-04-26T19:32:04.158Z,10.756836
2019-04-26T19:37:23.695Z,10.797119
2019-04-26T19:42:51.048Z,10.575562
2019-04-26T19:48:15.830Z,10.364075
2019-04-26T19:53:34.705Z,10.343933
2019-04-26T19:58:58.817Z,10.283508
2019-04-26T20:04:24.400Z,10.283508
2019-04-26T20:09:45.321Z,10.102234
2019-04-26T20:15:09.321Z,9.93103
2019-04-26T20:20:36.175Z,9.830322
2019-04-26T20:25:55.732Z,9.749756
2019-04-26T20:31:19.421Z,9.810181
2019-04-26T20:36:47.565Z,9.749756
2019-04-26T20:42:05.811Z,9.739685
2019-04-26T20:47:28.470Z,9.779968
2019-04-26T20:52:53.836Z,9.769897
2019-04-26T20:58:14.807Z,9.618835
2019-04-26T21:03:41.629Z,9.54834
2019-04-26T21:09:03.179Z,9.367065
2019-04-26T21:14:23.705Z,9.346924
2019-04-26T21:19:49.760Z,9.29657
2019-04-26T21:25:11.787Z,9.195862
2019-04-26T21:30:38.476Z,9.216003
2019-04-26T21:36:01.845Z,9.165649
2019-04-26T21:41:21.093Z,9.185791
2019-04-26T21:46:43.740Z,9.115295
2019-04-26T21:52:08.398Z,9.095154
2019-04-26T21:57:31.808Z,9.014587
2019-04-26T22:02:54.327Z,8.934021
2019-04-26T22:08:24.354Z,8.853455
2019-04-26T22:13:41.446Z,8.782959
2019-04-26T22:19:03.860Z,8.853455
2019-04-26T22:24:26.430Z,8.934021
2019-04-26T22:29:51.725Z,8.984375
2019-04-26T22:35:13.328Z,9.014587
2019-04-26T22:40:35.322Z,9.064941
2019-04-26T22:45:58.315Z,8.913879
2019-04-26T22:51:22.721Z,8.782959
2019-04-26T22:56:45.948Z,8.79303
2019-04-26T23:02:07.463Z,8.631897
2019-04-26T23:07:32.998Z,8.54126
2019-04-26T23:12:54.035Z,8.581543
2019-04-26T23:18:17.528Z,8.521118
2019-04-26T23:23:40.905Z,8.581543
2019-04-26T23:29:03.735Z,8.581543
2019-04-26T23:34:27.091Z,8.500977
2019-04-26T23:39:53.477Z,8.359985
2019-04-26T23:45:15.035Z,8.450623
2019-04-26T23:50:38.352Z,8.702393
2019-04-26T23:56:00.947Z,9.004517
